createdAt,value
2022-08-20T00:02:10.645Z,11.50
2022-08-20T00:04:39.560Z,11.05
2022-08-20T00:07:07.594Z,14.98
2022-08-20T00:09:36.704Z,13.45
2022-08-20T00:12:05.410Z,10.02
2022-08-20T00:14:34.011Z,13.52
2022-08-20T00:17:02.090Z,14.80
2022-08-20T00:19:29.703Z,13.07
2022-08-20T00:21:58.347Z,13.98
2022-08-20T00:24:26.442Z,9.30
2022-08-20T00:26:53.880Z,13.70
2022-08-20T00:29:22.472Z,14.02
2022-08-20T00:31:50.764Z,15.23
2022-08-20T00:34:18.254Z,20.23
2022-08-20T00:36:45.767Z,10.05
2022-08-20T00:39:13.323Z,13.77
2022-08-20T00:41:40.810Z,13.77
2022-08-20T00:44:13.936Z,18.25
2022-08-20T00:46:42.078Z,11.52
2022-08-20T00:49:10.361Z,19.15
2022-08-20T00:51:53.604Z,13.65
2022-08-20T00:54:30.490Z,26.38
2022-08-20T00:57:02.850Z,13.20
2022-08-20T00:59:31.914Z,16.58
2022-08-20T01:02:00.864Z,15.30
2022-08-20T01:04:31.449Z,11.93
2022-08-20T01:06:58.969Z,13.07
2022-08-20T01:09:33.517Z,13.00
2022-08-20T01:12:15.414Z,15.57
2022-08-20T01:14:46.703Z,15.02
2022-08-20T01:17:17.661Z,14.68
2022-08-20T01:19:54.907Z,10.68
2022-08-20T01:22:45.316Z,12.25
2022-08-20T01:25:23.922Z,13.32
2022-08-20T01:27:53.227Z,14.35
2022-08-20T01:30:24.243Z,15.77
2022-08-20T01:32:51.819Z,11.00
2022-08-20T01:35:21.588Z,13.25
2022-08-20T01:37:49.218Z,12.75
2022-08-20T01:40:24.705Z,14.05
2022-08-20T01:42:58.649Z,21.25
2022-08-20T01:45:29.256Z,12.52
2022-08-20T01:47:58.252Z,14.27
2022-08-20T01:50:27.499Z,13.00
2022-08-20T01:53:15.762Z,13.30
2022-08-20T01:55:43.737Z,12.70
2022-08-20T01:58:11.214Z,14.00
2022-08-20T02:00:38.927Z,16.02
2022-08-20T02:03:07.785Z,17.15
2022-08-20T02:05:36.048Z,18.65
2022-08-20T02:08:03.932Z,14.70
2022-08-20T02:10:32.018Z,15.40
2022-08-20T02:13:00.424Z,16.02
2022-08-20T02:15:35.224Z,18.00
2022-08-20T02:18:10.404Z,14.40
2022-08-20T02:20:38.395Z,13.88
2022-08-20T02:23:06.422Z,13.43
2022-08-20T02:25:35.237Z,13.90
2022-08-20T02:28:03.824Z,12.40
2022-08-20T02:30:33.406Z,13.10
2022-08-20T02:33:01.923Z,15.00
2022-08-20T02:35:32.030Z,13.05
2022-08-20T02:38:01.820Z,17.75
2022-08-20T02:40:30.754Z,13.70
2022-08-20T02:43:02.850Z,14.43
2022-08-20T02:45:31.584Z,16.02
2022-08-20T02:47:59.427Z,18.40
2022-08-20T02:50:27.309Z,14.43
2022-08-20T02:52:55.256Z,13.15
2022-08-20T02:55:27.663Z,13.52
2022-08-20T02:57:58.512Z,14.55
2022-08-20T03:00:27.313Z,17.52
2022-08-20T03:02:54.842Z,17.20
2022-08-20T03:05:22.410Z,16.17
2022-08-20T03:07:53.841Z,15.55
2022-08-20T03:10:25.696Z,13.15
2022-08-20T03:12:53.378Z,15.40
2022-08-20T03:15:20.917Z,13.95
2022-08-20T03:17:48.646Z,14.25
2022-08-20T03:20:16.172Z,16.52
2022-08-20T03:22:43.686Z,14.95
2022-08-20T03:25:11.917Z,18.70
2022-08-20T03:27:39.483Z,18.83
2022-08-20T03:30:08.833Z,17.42
2022-08-20T03:32:36.614Z,14.05
2022-08-20T03:35:05.818Z,14.95
2022-08-20T03:37:34.350Z,11.35
2022-08-20T03:40:03.364Z,16.13
2022-08-20T03:42:31.266Z,14.32
2022-08-20T03:44:59.392Z,16.42
2022-08-20T03:47:27.195Z,14.70
2022-08-20T03:49:59.060Z,12.82
2022-08-20T03:52:29.006Z,16.58
2022-08-20T03:54:57.287Z,11.63
2022-08-20T03:57:25.279Z,17.52
2022-08-20T03:59:55.126Z,14.27
2022-08-20T04:02:27.156Z,15.35
2022-08-20T04:04:55.245Z,17.50
2022-08-20T04:07:27.554Z,15.10
2022-08-20T04:09:56.165Z,57.88
2022-08-20T04:12:24.430Z,14.80
2022-08-20T04:14:52.572Z,15.95
2022-08-20T04:17:21.071Z,15.18
2022-08-20T04:19:50.127Z,12.63
2022-08-20T04:22:17.630Z,18.17
2022-08-20T04:24:45.119Z,18.20
2022-08-20T04:27:14.821Z,16.10
2022-08-20T04:29:45.873Z,19.73
2022-08-20T04:32:14.048Z,14.75
2022-08-20T04:34:44.549Z,19.75
2022-08-20T04:37:16.826Z,14.75
2022-08-20T04:39:44.976Z,12.40
2022-08-20T04:42:12.434Z,16.23
2022-08-20T04:44:39.917Z,16.60
2022-08-20T04:47:07.988Z,28.02
2022-08-20T04:49:35.465Z,14.15
2022-08-20T04:52:03.280Z,14.50
2022-08-20T04:54:31.438Z,13.68
2022-08-20T04:57:01.613Z,14.38
2022-08-20T04:59:29.124Z,12.30
2022-08-20T05:01:56.544Z,16.35
2022-08-20T05:04:27.660Z,18.48
2022-08-20T05:06:55.642Z,13.95
2022-08-20T05:09:23.745Z,14.18
2022-08-20T05:11:51.372Z,14.75
2022-08-20T05:14:18.805Z,18.17
2022-08-20T05:16:46.430Z,15.68
2022-08-20T05:19:14.587Z,15.02
2022-08-20T05:21:42.481Z,15.95
2022-08-20T05:24:11.429Z,13.82
2022-08-20T05:26:38.933Z,12.18
2022-08-20T05:29:07.608Z,16.48
2022-08-20T05:31:35.710Z,12.95
2022-08-20T05:34:09.828Z,13.13
2022-08-20T05:36:43.463Z,14.15
2022-08-20T05:39:11.147Z,13.50
2022-08-20T05:41:39.449Z,14.07
2022-08-20T05:44:13.499Z,12.05
2022-08-20T05:49:09.896Z,15.02
2022-08-20T05:51:37.983Z,14.40
2022-08-20T05:54:06.298Z,12.73
2022-08-20T05:56:34.914Z,16.75
2022-08-20T05:59:04.278Z,11.10
2022-08-20T06:01:32.893Z,13.07
2022-08-20T06:04:18.910Z,17.80
2022-08-20T06:06:47.383Z,19.17
2022-08-20T06:09:31.934Z,12.32
2022-08-20T06:12:01.350Z,11.23
2022-08-20T06:14:28.953Z,12.88
2022-08-20T06:16:57.600Z,12.30
2022-08-20T06:19:27.114Z,10.80
2022-08-20T06:21:59.673Z,16.83
2022-08-20T06:24:27.153Z,10.30
2022-08-20T06:27:02.674Z,9.52
2022-08-20T06:29:31.858Z,9.40
2022-08-20T06:31:59.263Z,8.80
2022-08-20T06:34:30.827Z,9.65
2022-08-20T06:36:59.249Z,11.80
2022-08-20T06:39:29.645Z,7.18
2022-08-20T06:41:58.773Z,11.18
2022-08-20T06:44:28.341Z,11.45
2022-08-20T06:46:56.498Z,8.88
2022-08-20T06:49:24.040Z,19.90
2022-08-20T06:51:52.109Z,11.50
2022-08-20T06:54:19.672Z,10.52
2022-08-20T06:56:47.101Z,9.50
2022-08-20T06:59:14.614Z,8.98
2022-08-20T07:01:42.194Z,9.95
2022-08-20T07:04:09.741Z,10.82
2022-08-20T07:06:37.331Z,10.20
2022-08-20T07:09:04.938Z,7.30
2022-08-20T07:11:33.165Z,12.13
2022-08-20T07:14:01.383Z,12.45
2022-08-20T07:16:28.858Z,7.30
2022-08-20T07:18:56.299Z,10.95
2022-08-20T07:21:23.775Z,9.38
2022-08-20T07:23:51.257Z,8.07
2022-08-20T07:26:18.973Z,10.98
2022-08-20T07:28:46.443Z,13.38
2022-08-20T07:31:34.838Z,11.15
2022-08-20T07:34:02.997Z,8.23
2022-08-20T07:36:30.776Z,15.15
2022-08-20T07:38:58.602Z,11.95
2022-08-20T07:41:26.198Z,10.00
2022-08-20T07:43:53.863Z,9.50
2022-08-20T07:46:21.859Z,7.88
2022-08-20T07:48:51.680Z,10.85
2022-08-20T07:51:20.138Z,11.98
2022-08-20T07:53:48.184Z,10.75
2022-08-20T07:56:17.260Z,8.73
2022-08-20T07:58:49.727Z,8.38
2022-08-20T08:01:20.083Z,9.95
2022-08-20T08:03:49.807Z,10.48
2022-08-20T08:06:28.409Z,9.75
2022-08-20T08:09:00.210Z,14.93
2022-08-20T08:11:27.665Z,7.32
2022-08-20T08:13:55.137Z,8.93
2022-08-20T08:16:22.712Z,9.52
2022-08-20T08:18:53.256Z,9.15
2022-08-20T08:21:22.453Z,10.90
2022-08-20T08:23:50.279Z,8.88
2022-08-20T08:26:19.260Z,8.55
2022-08-20T08:28:46.982Z,9.07
2022-08-20T08:31:15.177Z,8.93
2022-08-20T08:33:42.934Z,8.63
2022-08-20T08:36:14.853Z,9.60
2022-08-20T08:38:44.386Z,8.15
2022-08-20T08:41:20.327Z,7.80
2022-08-20T08:43:49.489Z,16.35
2022-08-20T08:46:21.562Z,9.55
2022-08-20T08:48:50.163Z,6.40
2022-08-20T08:51:20.517Z,10.82
2022-08-20T08:53:53.563Z,8.43
2022-08-20T08:56:31.478Z,7.53
2022-08-20T08:59:01.205Z,10.73
2022-08-20T09:01:55.063Z,11.07
2022-08-20T09:04:17.637Z,10.10
2022-08-20T09:06:55.525Z,8.43
2022-08-20T09:09:27.392Z,11.38
2022-08-20T09:11:55.784Z,8.30
2022-08-20T09:14:25.053Z,10.10
2022-08-20T09:16:53.602Z,7.28
2022-08-20T09:19:21.664Z,9.20
2022-08-20T09:21:49.216Z,12.13
2022-08-20T09:24:16.699Z,15.90
2022-08-20T09:26:44.368Z,9.18
2022-08-20T09:29:11.967Z,8.05
2022-08-20T09:31:39.866Z,8.73
2022-08-20T09:34:07.880Z,8.70
2022-08-20T09:36:35.457Z,7.07
2022-08-20T09:39:03.500Z,7.00
2022-08-20T09:41:34.301Z,8.40
2022-08-20T09:44:02.351Z,10.80
2022-08-20T09:46:29.806Z,9.25
2022-08-20T09:48:57.302Z,8.13
2022-08-20T09:51:24.761Z,8.95
2022-08-20T09:53:52.965Z,12.68
2022-08-20T09:56:20.607Z,12.32
2022-08-20T09:58:48.017Z,10.65
2022-08-20T10:01:17.040Z,7.90
2022-08-20T10:03:45.336Z,10.48
2022-08-20T10:06:14.821Z,9.20
2022-08-20T10:08:42.321Z,8.43
2022-08-20T10:11:09.857Z,9.77
2022-08-20T10:13:37.307Z,7.95
2022-08-20T10:16:04.858Z,9.68
2022-08-20T10:18:32.276Z,11.15
2022-08-20T10:20:59.761Z,9.10
2022-08-20T10:23:27.360Z,7.45
2022-08-20T10:25:54.877Z,14.43
2022-08-20T10:28:22.350Z,8.77
2022-08-20T10:30:49.798Z,8.40
2022-08-20T10:33:17.350Z,7.57
2022-08-20T10:35:45.027Z,11.25
2022-08-20T10:38:12.452Z,8.10
2022-08-20T10:40:40.004Z,8.27
2022-08-20T10:43:07.414Z,8.35
2022-08-20T10:45:35.037Z,11.80
2022-08-20T10:48:04.256Z,11.55
2022-08-20T10:50:31.679Z,10.68
2022-08-20T10:52:59.325Z,11.60
2022-08-20T10:55:26.792Z,11.70
2022-08-20T10:57:54.296Z,9.00
2022-08-20T11:00:22.248Z,13.55
2022-08-20T11:02:50.168Z,11.45
2022-08-20T11:05:17.636Z,8.55
2022-08-20T11:07:55.183Z,8.23
2022-08-20T11:10:28.978Z,9.20
2022-08-20T11:12:56.540Z,11.98
2022-08-20T11:15:24.047Z,8.68
2022-08-20T11:17:51.534Z,12.07
2022-08-20T11:20:20.888Z,10.32
2022-08-20T11:22:48.749Z,15.02
2022-08-20T11:25:16.241Z,9.85
2022-08-20T11:27:45.465Z,11.05
2022-08-20T11:30:14.597Z,9.25
2022-08-20T11:32:42.159Z,42.05
2022-08-20T11:35:40.455Z,9.70
2022-08-20T11:37:58.518Z,11.38
2022-08-20T11:40:26.968Z,17.23
2022-08-20T11:43:13.590Z,16.42
2022-08-20T11:45:42.025Z,11.75
2022-08-20T11:48:09.501Z,7.60
2022-08-20T11:50:37.042Z,13.70
2022-08-20T11:53:04.545Z,10.00
2022-08-20T11:55:32.676Z,9.50
2022-08-20T11:58:01.107Z,9.70
2022-08-20T12:00:32.662Z,8.75
2022-08-20T12:03:05.617Z,10.38
2022-08-20T12:05:37.099Z,7.72
2022-08-20T12:08:05.372Z,10.75
2022-08-20T12:10:33.368Z,9.02
2022-08-20T12:13:01.726Z,9.15
2022-08-20T12:15:32.235Z,6.22
2022-08-20T12:17:59.737Z,8.43
2022-08-20T12:20:27.217Z,11.05
2022-08-20T12:22:54.730Z,11.85
2022-08-20T12:25:22.228Z,11.82
2022-08-20T12:27:49.658Z,8.90
2022-08-20T12:30:19.965Z,8.50
2022-08-20T12:32:47.814Z,12.20
2022-08-20T12:35:16.398Z,18.13
2022-08-20T12:37:44.211Z,10.63
2022-08-20T12:40:13.994Z,11.05
2022-08-20T12:42:41.613Z,9.52
2022-08-20T12:45:09.338Z,7.30
2022-08-20T12:47:38.830Z,9.93
2022-08-20T12:50:08.814Z,8.43
2022-08-20T12:52:36.883Z,9.52
2022-08-20T12:55:05.370Z,10.70
2022-08-20T12:57:34.518Z,9.70
2022-08-20T13:00:04.972Z,10.45
2022-08-20T13:02:32.480Z,9.38
2022-08-20T13:05:04.626Z,9.70
2022-08-20T13:07:33.566Z,10.47
2022-08-20T13:10:01.551Z,7.53
2022-08-20T13:12:29.200Z,11.15
2022-08-20T13:14:56.682Z,11.68
2022-08-20T13:17:38.026Z,12.35
2022-08-20T13:20:08.334Z,8.00
2022-08-20T13:22:35.738Z,8.82
2022-08-20T13:25:03.267Z,7.32
2022-08-20T13:27:30.723Z,11.27
2022-08-20T13:29:59.058Z,8.68
2022-08-20T13:32:27.178Z,13.70
2022-08-20T13:34:54.655Z,7.60
2022-08-20T13:37:25.616Z,11.55
2022-08-20T13:39:56.362Z,8.32
2022-08-20T13:42:24.286Z,10.25
2022-08-20T13:44:51.695Z,8.43
2022-08-20T13:47:19.196Z,11.35
2022-08-20T13:49:47.395Z,11.60
2022-08-20T13:52:16.775Z,9.98
2022-08-20T13:54:44.652Z,13.38
2022-08-20T13:57:13.490Z,8.48
2022-08-20T13:59:42.041Z,8.82
2022-08-20T14:02:10.323Z,10.18
2022-08-20T14:04:38.186Z,11.25
2022-08-20T14:07:11.418Z,10.95
2022-08-20T14:09:40.413Z,10.10
2022-08-20T14:12:08.460Z,10.43
2022-08-20T14:14:36.148Z,12.77
2022-08-20T14:17:17.235Z,12.23
2022-08-20T14:19:45.551Z,9.90
2022-08-20T14:22:13.284Z,9.57
2022-08-20T14:24:40.737Z,11.27
2022-08-20T14:27:08.622Z,10.48
2022-08-20T14:29:37.407Z,16.58
2022-08-20T14:32:05.302Z,12.65
2022-08-20T14:34:33.335Z,9.93
2022-08-20T14:37:29.905Z,10.80
2022-08-20T14:39:58.495Z,12.15
2022-08-20T14:42:28.181Z,9.90
2022-08-20T14:44:56.766Z,10.65
2022-08-20T14:47:26.477Z,12.20
2022-08-20T14:49:54.840Z,8.10
2022-08-20T14:52:23.394Z,8.25
2022-08-20T14:54:55.649Z,8.32
2022-08-20T14:57:23.417Z,8.20
2022-08-20T14:59:53.097Z,10.57
2022-08-20T15:02:20.668Z,9.15
2022-08-20T15:04:52.241Z,9.98
2022-08-20T15:07:24.916Z,12.75
2022-08-20T15:09:53.211Z,12.23
2022-08-20T15:12:20.661Z,8.55
2022-08-20T15:14:48.218Z,8.13
2022-08-20T15:17:20.674Z,12.35
2022-08-20T15:19:48.397Z,10.65
2022-08-20T15:22:16.677Z,5.90
2022-08-20T15:24:45.455Z,10.13
2022-08-20T15:27:13.069Z,9.32
2022-08-20T15:29:40.706Z,7.80
2022-08-20T15:32:08.753Z,24.92
2022-08-20T15:34:36.762Z,14.85
2022-08-20T15:37:17.956Z,9.05
2022-08-20T15:39:45.756Z,22.17
2022-08-20T15:42:13.705Z,14.60
2022-08-20T15:44:41.920Z,10.48
2022-08-20T15:47:24.087Z,14.70
2022-08-20T15:49:54.071Z,19.70
2022-08-20T15:52:21.674Z,16.20
2022-08-20T15:54:49.349Z,11.15
2022-08-20T15:57:41.140Z,10.10
2022-08-20T16:00:12.926Z,12.57
2022-08-20T16:02:59.018Z,13.30
2022-08-20T16:05:29.436Z,13.77
2022-08-20T16:08:09.230Z,18.13
2022-08-20T16:10:42.721Z,16.88
2022-08-20T16:13:21.373Z,13.43
2022-08-20T16:15:54.207Z,11.52
2022-08-20T16:18:25.482Z,10.40
2022-08-20T16:20:54.524Z,12.93
2022-08-20T16:23:27.328Z,21.48
2022-08-20T16:26:07.062Z,12.57
2022-08-20T16:28:57.585Z,17.02
2022-08-20T16:31:27.213Z,30.15
2022-08-20T16:34:02.865Z,25.15
2022-08-20T16:36:39.753Z,51.40
2022-08-20T16:39:11.390Z,91.43
2022-08-20T16:41:40.421Z,28.10
2022-08-20T16:44:17.722Z,21.20
2022-08-20T16:46:51.673Z,19.83
2022-08-20T16:51:51.686Z,71.00
2022-08-20T16:54:29.404Z,104.07
2022-08-20T16:57:03.212Z,82.85
2022-08-20T16:59:30.842Z,63.17
2022-08-20T17:02:04.522Z,94.72
2022-08-20T17:04:35.474Z,168.50
2022-08-20T17:07:06.958Z,138.07
2022-08-20T17:09:43.849Z,44.60
2022-08-20T17:12:19.342Z,36.53
2022-08-20T17:14:51.191Z,47.58
2022-08-20T17:17:21.831Z,53.33
2022-08-20T17:19:54.156Z,87.65
2022-08-20T17:22:22.270Z,62.70
2022-08-20T17:24:49.802Z,86.03
2022-08-20T17:27:28.691Z,43.95
2022-08-20T17:29:58.666Z,23.73
2022-08-20T17:32:27.491Z,25.48
2022-08-20T17:34:56.420Z,24.55
2022-08-20T17:37:25.484Z,16.90
2022-08-20T17:40:06.317Z,12.20
2022-08-20T17:42:34.147Z,15.70
2022-08-20T17:45:09.105Z,13.38
2022-08-20T17:47:37.485Z,15.27
2022-08-20T17:50:10.914Z,21.63
2022-08-20T17:52:47.609Z,14.35
2022-08-20T17:55:15.134Z,13.40
2022-08-20T17:57:45.065Z,10.52
2022-08-20T18:00:23.532Z,15.43
2022-08-20T18:02:55.056Z,17.52
2022-08-20T18:05:23.330Z,18.90
2022-08-20T18:08:09.566Z,15.30
2022-08-20T18:10:43.397Z,15.82
2022-08-20T18:13:13.920Z,11.40
2022-08-20T18:15:45.868Z,18.05
2022-08-20T18:18:20.832Z,14.13
2022-08-20T18:21:04.280Z,14.38
2022-08-20T18:23:34.096Z,14.82
2022-08-20T18:26:07.044Z,13.07
2022-08-20T18:28:39.680Z,13.82
2022-08-20T18:31:09.076Z,12.80
2022-08-20T18:33:37.946Z,11.02
2022-08-20T18:36:07.740Z,12.90
2022-08-20T18:38:38.298Z,11.05
2022-08-20T18:41:06.931Z,13.40
2022-08-20T18:43:35.699Z,14.63
2022-08-20T18:46:21.413Z,16.35
2022-08-20T18:48:56.763Z,18.08
2022-08-20T18:51:28.693Z,22.77
2022-08-20T18:53:56.296Z,20.38
2022-08-20T18:56:37.608Z,15.60
2022-08-20T18:59:08.854Z,20.55
2022-08-20T19:01:37.290Z,16.58
2022-08-20T19:04:15.416Z,18.95
2022-08-20T19:06:47.326Z,18.00
2022-08-20T19:09:17.933Z,20.15
2022-08-20T19:11:57.607Z,20.92
2022-08-20T19:14:43.718Z,19.70
2022-08-20T19:17:37.635Z,13.18
2022-08-20T19:20:09.004Z,16.58
2022-08-20T19:22:36.646Z,19.48
2022-08-20T19:25:04.618Z,18.20
2022-08-20T19:27:32.278Z,24.20
2022-08-20T19:29:59.850Z,15.60
2022-08-20T19:32:32.283Z,9.95
2022-08-20T19:35:02.565Z,12.18
2022-08-20T19:37:39.778Z,14.10
2022-08-20T19:40:24.465Z,15.32
2022-08-20T19:42:56.130Z,14.30
2022-08-20T19:45:28.865Z,9.73
2022-08-20T19:47:56.387Z,9.73
2022-08-20T19:50:50.989Z,8.88
2022-08-20T19:53:18.389Z,11.27
2022-08-20T19:56:14.304Z,12.15
2022-08-20T19:58:42.080Z,16.25
2022-08-20T20:01:20.402Z,10.68
2022-08-20T20:03:56.550Z,13.95
2022-08-20T20:06:25.859Z,10.10
2022-08-20T20:08:53.374Z,15.43
2022-08-20T20:11:25.235Z,9.43
2022-08-20T20:13:53.155Z,7.53
2022-08-20T20:16:21.609Z,9.90
2022-08-20T20:19:03.980Z,11.73
2022-08-20T20:21:41.744Z,11.82
2022-08-20T20:24:09.876Z,7.40
2022-08-20T20:26:39.243Z,15.23
2022-08-20T20:29:11.256Z,9.98
2022-08-20T20:31:42.783Z,11.20
2022-08-20T20:34:12.148Z,8.80
2022-08-20T20:36:44.835Z,9.00
2022-08-20T20:39:24.928Z,9.15
2022-08-20T20:41:53.871Z,11.77
2022-08-20T20:44:22.983Z,10.77
2022-08-20T20:46:53.138Z,9.73
2022-08-20T20:49:25.436Z,11.32
2022-08-20T20:51:54.982Z,10.27
2022-08-20T20:54:27.894Z,10.43
2022-08-20T20:57:09.591Z,9.30
2022-08-20T20:59:37.392Z,11.75
2022-08-20T21:02:05.309Z,13.18
2022-08-20T21:04:32.824Z,14.38
2022-08-20T21:07:06.131Z,12.07
2022-08-20T21:09:34.449Z,8.93
2022-08-20T21:12:02.151Z,7.07
2022-08-20T21:14:29.730Z,9.48
2022-08-20T21:16:59.724Z,11.95
2022-08-20T21:19:27.532Z,10.05
2022-08-20T21:21:55.152Z,11.25
2022-08-20T21:24:22.728Z,14.95
2022-08-20T21:26:50.771Z,9.30
2022-08-20T21:29:22.162Z,11.25
2022-08-20T21:31:49.729Z,11.45
2022-08-20T21:34:17.876Z,11.10
2022-08-20T21:36:45.692Z,10.40
2022-08-20T21:39:13.136Z,10.43
2022-08-20T21:41:42.697Z,9.95
2022-08-20T21:44:12.474Z,10.98
2022-08-20T21:46:39.956Z,12.35
2022-08-20T21:49:07.582Z,12.98
2022-08-20T21:51:36.040Z,8.27
2022-08-20T21:54:03.798Z,12.77
2022-08-20T21:56:33.799Z,10.57
2022-08-20T21:59:02.009Z,9.30
2022-08-20T22:01:32.756Z,10.73
2022-08-20T22:04:00.415Z,12.63
2022-08-20T22:06:28.098Z,14.27
2022-08-20T22:08:55.588Z,9.77
2022-08-20T22:11:23.008Z,10.75
2022-08-20T22:13:50.562Z,11.30
2022-08-20T22:16:19.224Z,9.02
2022-08-20T22:18:47.684Z,13.77
2022-08-20T22:21:20.026Z,11.77
2022-08-20T22:23:47.666Z,11.10
2022-08-20T22:26:15.165Z,8.45
2022-08-20T22:28:42.978Z,14.48
2022-08-20T22:31:10.635Z,13.88
2022-08-20T22:33:38.759Z,13.73
2022-08-20T22:36:07.102Z,13.98
2022-08-20T22:38:34.674Z,15.73
2022-08-20T22:41:05.217Z,12.95
2022-08-20T22:43:36.543Z,15.15
2022-08-20T22:46:15.060Z,15.93
2022-08-20T22:48:43.051Z,12.20
2022-08-20T22:51:10.955Z,13.07
2022-08-20T22:53:46.398Z,12.55
2022-08-20T22:56:21.690Z,14.27
2022-08-20T22:58:50.060Z,17.83
2022-08-20T23:01:18.855Z,16.50
2022-08-20T23:03:46.954Z,17.67
2022-08-20T23:06:14.815Z,12.25
2022-08-20T23:08:42.470Z,19.42
2022-08-20T23:11:10.109Z,16.23
2022-08-20T23:13:37.545Z,13.65
2022-08-20T23:16:06.097Z,15.20
2022-08-20T23:18:33.655Z,32.05
2022-08-20T23:21:01.485Z,19.42
2022-08-20T23:23:29.174Z,14.55
2022-08-20T23:25:56.767Z,14.23
2022-08-20T23:28:25.133Z,12.90
2022-08-20T23:30:52.658Z,15.68
2022-08-20T23:33:20.429Z,14.60
2022-08-20T23:35:48.547Z,18.65
2022-08-20T23:38:16.159Z,18.98
2022-08-20T23:40:44.085Z,22.25
2022-08-20T23:43:11.801Z,14.73
2022-08-20T23:45:40.193Z,15.63
2022-08-20T23:48:07.965Z,12.07
2022-08-20T23:50:36.000Z,14.93
2022-08-20T23:53:04.297Z,15.70
2022-08-20T23:55:32.061Z,18.63
2022-08-20T23:57:59.523Z,17.40
